Time;durP1;ratioP1;P1;durP2;ratioP2;P2;SDS_P1;SDS_P2;PMS_P1;PMS_P2;Temp;Humidity;BMP_temperature;BMP_pressure;BME280_temperature;BME280_humidity;BME280_pressure;Samples;Min_cycle;Max_cycle;Signal;HPM_P1;HPM_P2
2022/05/11 00:02:18;;;;;;;5.43;4.93;;;;;;;;;;12552372;28;20045;-80
2022/05/11 00:08:20;;;;;;;6.13;5.57;;;;;;;;;;12552273;28;20311;-80
2022/05/11 00:14:22;;;;;;;5.28;4.88;;;;;;;;;;12552280;28;20502;-80
2022/05/11 00:20:24;;;;;;;6.00;5.10;;;;;;;;;;12552228;28;20033;-79
2022/05/11 00:26:26;;;;;;;6.05;5.05;;;;;;;;;;12550635;28;20287;-80
2022/05/11 00:32:28;;;;;;;6.05;5.55;;;;;;;;;;12533455;28;20037;-80
2022/05/11 00:38:30;;;;;;;6.70;5.80;;;;;;;;;;12534230;28;20045;-80
2022/05/11 00:44:32;;;;;;;5.13;4.72;;;;;;;;;;12551003;28;20286;-81
2022/05/11 00:50:35;;;;;;;6.18;5.38;;;;;;;;;;12549599;28;20032;-80
2022/05/11 00:56:40;;;;;;;5.68;5.18;;;;;;;;;;12531792;28;20056;-80
2022/05/11 01:02:43;;;;;;;5.35;4.85;;;;;;;;;;12548667;28;20481;-80
2022/05/11 01:08:44;;;;;;;5.60;5.10;;;;;;;;;;12550193;28;20053;-80
2022/05/11 01:14:57;;;;;;;6.23;5.27;;;;;;;;;;12547721;28;20055;-81
2022/05/11 01:20:59;;;;;;;;;;;;;;;;;;12547835;28;20760;-79
2022/05/11 01:27:20;;;;;;;6.05;5.47;;;;;;;;;;12548445;28;19916;-80
2022/05/11 01:33:24;;;;;;;5.13;4.73;;;;;;;;;;12531275;28;20044;-80
2022/05/11 01:39:25;;;;;;;5.45;4.95;;;;;;;;;;12548950;28;20047;-79
2022/05/11 01:45:27;;;;;;;7.60;5.47;;;;;;;;;;12529805;28;20047;-79
2022/05/11 01:51:29;;;;;;;5.88;4.65;;;;;;;;;;12528871;28;20051;-79
2022/05/11 01:57:31;;;;;;;7.00;5.40;;;;;;;;;;12545616;28;20048;-79
2022/05/11 02:03:33;;;;;;;5.57;5.07;;;;;;;;;;12528990;28;20517;-81
2022/05/11 02:09:35;;;;;;;5.15;4.65;;;;;;;;;;12545405;28;20061;-80
2022/05/11 02:15:36;;;;;;;5.15;4.65;;;;;;;;;;12546708;28;20033;-80
2022/05/11 02:21:38;;;;;;;5.77;5.27;;;;;;;;;;12544436;28;20048;-80
2022/05/11 02:27:40;;;;;;;8.70;6.17;;;;;;;;;;12544424;28;20310;-80
2022/05/11 02:33:42;;;;;;;5.15;4.65;;;;;;;;;;12528214;28;20043;-79
2022/05/11 02:39:44;;;;;;;4.47;4.13;;;;;;;;;;12544618;28;20462;-79
2022/05/11 02:45:46;;;;;;;5.03;4.53;;;;;;;;;;12543611;28;20041;-79
2022/05/11 02:51:47;;;;;;;5.63;5.13;;;;;;;;;;12543379;28;20509;-79
2022/05/11 02:57:49;;;;;;;6.50;5.90;;;;;;;;;;12543407;28;20056;-80
2022/05/11 03:03:51;;;;;;;7.43;6.23;;;;;;;;;;12525343;28;20064;-79
2022/05/11 03:09:53;;;;;;;6.47;5.13;;;;;;;;;;12543542;28;20079;-80
2022/05/11 03:15:55;;;;;;;6.55;5.97;;;;;;;;;;12544234;28;20399;-79
2022/05/11 03:21:57;;;;;;;5.85;5.20;;;;;;;;;;12544568;28;20359;-80
2022/05/11 03:27:59;;;;;;;5.45;4.95;;;;;;;;;;12543709;28;20417;-80
2022/05/11 03:40:22;;;;;;;4.72;4.32;;;;;;;;;;12545435;28;20041;-80
2022/05/11 03:46:23;;;;;;;4.10;3.70;;;;;;;;;;12525501;28;20037;-80
2022/05/11 03:52:26;;;;;;;5.27;4.53;;;;;;;;;;12541842;28;20033;-79
2022/05/11 03:58:27;;;;;;;;;;;;;;;;;;12543869;28;20045;-79
2022/05/11 04:04:29;;;;;;;5.50;5.00;;;;;;;;;;12542636;28;19913;-79
2022/05/11 04:10:31;;;;;;;6.27;5.67;;;;;;;;;;12542535;28;20057;-79
2022/05/11 04:16:32;;;;;;;6.67;6.07;;;;;;;;;;12532062;28;20041;-79
2022/05/11 04:22:34;;;;;;;6.27;5.37;;;;;;;;;;12551068;28;20032;-79
2022/05/11 04:28:36;;;;;;;6.60;5.93;;;;;;;;;;12551356;28;20037;-79
2022/05/11 04:34:40;;;;;;;5.63;4.95;;;;;;;;;;12549700;28;20048;-79
2022/05/11 04:40:43;;;;;;;6.03;5.53;;;;;;;;;;12552539;28;20041;-79
2022/05/11 04:46:45;;;;;;;4.53;3.95;;;;;;;;;;12548951;28;20417;-79
2022/05/11 04:52:47;;;;;;;7.72;7.07;;;;;;;;;;12532359;28;20033;-79
2022/05/11 04:58:50;;;;;;;7.73;6.80;;;;;;;;;;12548924;28;20517;-79
2022/05/11 05:04:52;;;;;;;8.75;7.57;;;;;;;;;;12548805;28;20636;-79
2022/05/11 05:10:54;;;;;;;8.60;7.70;;;;;;;;;;12550173;28;20393;-79
2022/05/11 05:17:03;;;;;;;9.43;8.02;;;;;;;;;;12548605;28;20045;-79
2022/05/11 05:23:05;;;;;;;7.20;6.50;;;;;;;;;;12547288;28;20029;-79
2022/05/11 05:35:27;;;;;;;12.63;11.43;;;;;;;;;;12545076;28;20528;-79
2022/05/11 05:41:29;;;;;;;11.20;10.03;;;;;;;;;;12545968;28;20075;-78
2022/05/11 05:47:31;;;;;;;16.33;12.98;;;;;;;;;;12537269;28;20029;-79
2022/05/11 05:53:33;;;;;;;10.57;9.53;;;;;;;;;;12508036;28;20048;-79
2022/05/11 05:59:35;;;;;;;10.38;9.25;;;;;;;;;;12535976;28;20025;-79
2022/05/11 06:05:36;;;;;;;10.57;9.47;;;;;;;;;;12533645;28;20723;-78
2022/05/11 06:11:38;;;;;;;11.25;10.07;;;;;;;;;;12504851;28;20080;-80
2022/05/11 06:17:40;;;;;;;14.18;12.07;;;;;;;;;;12517150;28;20639;-79
2022/05/11 06:23:42;;;;;;;11.90;9.97;;;;;;;;;;12519908;28;20496;-78
2022/05/11 06:29:51;;;;;;;13.27;11.77;;;;;;;;;;12524048;28;20044;-78
2022/05/11 06:35:52;;;;;;;9.60;8.70;;;;;;;;;;12503139;28;20033;-78
2022/05/11 06:41:54;;;;;;;13.15;10.23;;;;;;;;;;12529523;28;20482;-78
2022/05/11 06:47:56;;;;;;;14.57;12.33;;;;;;;;;;12520652;28;20033;-80
2022/05/11 07:00:18;;;;;;;9.68;8.77;;;;;;;;;;12525592;28;20284;-79
2022/05/11 07:06:20;;;;;;;9.88;8.32;;;;;;;;;;12523853;28;20048;-79
2022/05/11 07:12:24;;;;;;;11.07;8.35;;;;;;;;;;12523619;28;20040;-79
2022/05/11 07:18:26;;;;;;;10.27;9.27;;;;;;;;;;12516123;28;20059;-79
2022/05/11 07:24:28;;;;;;;7.90;7.18;;;;;;;;;;12524991;28;20028;-79
2022/05/11 07:30:32;;;;;;;8.57;6.95;;;;;;;;;;12531066;28;20033;-79
2022/05/11 07:36:34;;;;;;;10.13;8.70;;;;;;;;;;12531143;28;20612;-79
2022/05/11 07:42:36;;;;;;;7.60;6.50;;;;;;;;;;12499499;28;20029;-79
2022/05/11 07:48:38;;;;;;;9.88;5.95;;;;;;;;;;12519383;28;20398;-78
2022/05/11 07:54:41;;;;;;;4.28;3.92;;;;;;;;;;12525719;28;20044;-78
2022/05/11 08:00:43;;;;;;;5.68;5.10;;;;;;;;;;12537082;28;20029;-78
2022/05/11 08:06:46;;;;;;;5.32;4.72;;;;;;;;;;12512490;28;20048;-79
2022/05/11 08:12:49;;;;;;;5.10;4.60;;;;;;;;;;12529746;28;20510;-78
2022/05/11 08:18:50;;;;;;;4.88;4.13;;;;;;;;;;12525552;28;20048;-79
2022/05/11 08:24:54;;;;;;;4.45;4.05;;;;;;;;;;12512840;28;20063;-79
2022/05/11 08:37:16;;;;;;;5.18;4.55;;;;;;;;;;12535312;28;20045;-79
2022/05/11 08:43:18;;;;;;;;;;;;;;;;;;12533379;28;20026;-79
2022/05/11 08:49:21;;;;;;;5.78;5.22;;;;;;;;;;12513893;28;20297;-81
2022/05/11 08:55:26;;;;;;;8.52;6.47;;;;;;;;;;12520807;28;20451;-78
2022/05/11 09:01:48;;;;;;;6.53;4.80;;;;;;;;;;12531245;28;20386;-79
2022/05/11 09:07:53;;;;;;;3.65;3.15;;;;;;;;;;12521735;28;21359;-77
2022/05/11 09:13:59;;;;;;;4.47;4.07;;;;;;;;;;12494633;28;20490;-75
2022/05/11 09:20:07;;;;;;;5.63;3.50;;;;;;;;;;12491231;28;20021;-76
2022/05/11 09:26:10;;;;;;;5.18;4.07;;;;;;;;;;12492217;28;20025;-76
2022/05/11 09:32:35;;;;;;;5.28;3.75;;;;;;;;;;12488808;28;20046;-75
2022/05/11 09:38:46;;;;;;;4.95;3.33;;;;;;;;;;12492909;28;20044;-78
2022/05/11 09:44:49;;;;;;;3.85;3.45;;;;;;;;;;12492022;28;20040;-78
2022/05/11 09:50:55;;;;;;;4.60;3.30;;;;;;;;;;12470769;28;20033;-78
2022/05/11 09:57:05;;;;;;;5.20;3.35;;;;;;;;;;12475667;28;20037;-77
2022/05/11 10:03:12;;;;;;;4.93;3.20;;;;;;;;;;12484878;28;20037;-77
2022/05/11 10:09:15;;;;;;;3.33;2.80;;;;;;;;;;12494511;28;20053;-78
2022/05/11 10:22:22;;;;;;;2.78;2.30;;;;;;;;;;12484084;28;20041;-78
2022/05/11 10:28:26;;;;;;;7.72;4.88;;;;;;;;;;12408332;28;20355;-78
2022/05/11 10:34:39;;;;;;;6.30;3.97;;;;;;;;;;12487891;28;20049;-79
2022/05/11 10:40:48;;;;;;;5.60;4.00;;;;;;;;;;12485679;28;20467;-78
2022/05/11 10:46:55;;;;;;;5.07;3.33;;;;;;;;;;12492361;28;20052;-78
2022/05/11 10:53:03;;;;;;;7.82;5.05;;;;;;;;;;12476609;28;20056;-78
2022/05/11 10:59:08;;;;;;;5.35;3.78;;;;;;;;;;12489226;28;20049;-79
2022/05/11 11:05:16;;;;;;;3.97;3.13;;;;;;;;;;12490714;28;20017;-78
2022/05/11 11:11:32;;;;;;;4.00;3.25;;;;;;;;;;12523179;28;20065;-78
2022/05/11 11:17:34;;;;;;;3.95;3.58;;;;;;;;;;12536282;28;20048;-78
2022/05/11 11:23:40;;;;;;;4.03;3.47;;;;;;;;;;12533785;28;20032;-78
2022/05/11 11:30:01;;;;;;;5.35;4.32;;;;;;;;;;12535229;28;20037;-78
2022/05/11 11:36:02;;;;;;;4.73;2.90;;;;;;;;;;12535709;28;20048;-78
2022/05/11 11:42:05;;;;;;;5.35;3.85;;;;;;;;;;12548275;28;20036;-78
2022/05/11 11:48:23;;;;;;;4.32;2.78;;;;;;;;;;12551032;28;20040;-76
2022/05/11 11:54:37;;;;;;;3.30;2.78;;;;;;;;;;12533764;28;20041;-76
2022/05/11 12:00:48;;;;;;;3.20;2.88;;;;;;;;;;12552060;28;20048;-77
2022/05/11 12:19:36;;;;;;;18.08;16.27;;;;;;;;;;12552047;28;20037;-78
2022/05/11 12:25:38;;;;;;;10.70;9.68;;;;;;;;;;12517329;28;20037;-78
2022/05/11 12:31:40;;;;;;;7.45;6.03;;;;;;;;;;12533281;28;20040;-78
2022/05/11 12:37:42;;;;;;;6.90;5.85;;;;;;;;;;12532882;28;20052;-78
2022/05/11 12:43:52;;;;;;;6.15;3.92;;;;;;;;;;12531840;28;20037;-76
2022/05/11 12:49:54;;;;;;;5.40;3.60;;;;;;;;;;12532378;28;20043;-77
2022/05/11 12:56:07;;;;;;;6.82;3.35;;;;;;;;;;12549518;28;20041;-76
2022/05/11 13:02:17;;;;;;;2.83;2.60;;;;;;;;;;12549311;28;20393;-77
2022/05/11 13:08:20;;;;;;;5.72;2.67;;;;;;;;;;12549014;28;20060;-76
2022/05/11 13:14:24;;;;;;;4.50;3.10;;;;;;;;;;12548588;28;20147;-77
2022/05/11 13:20:27;;;;;;;4.43;3.10;;;;;;;;;;12548709;28;20021;-77
2022/05/11 13:26:35;;;;;;;5.10;2.85;;;;;;;;;;12548104;28;20041;-77
2022/05/11 13:32:38;;;;;;;5.70;2.70;;;;;;;;;;12547652;28;20037;-77
2022/05/11 13:38:49;;;;;;;4.97;2.47;;;;;;;;;;12514037;28;20040;-77
2022/05/11 13:44:53;;;;;;;2.78;2.10;;;;;;;;;;12546398;28;20508;-77
2022/05/11 13:51:05;;;;;;;3.60;2.30;;;;;;;;;;12547084;28;20036;-77
2022/05/11 13:57:08;;;;;;;5.43;2.40;;;;;;;;;;12528642;28;20067;-77
2022/05/11 14:03:14;;;;;;;4.13;2.33;;;;;;;;;;12528316;28;20033;-77
2022/05/11 14:09:15;;;;;;;3.40;2.35;;;;;;;;;;12529658;28;20390;-77
2022/05/11 14:15:17;;;;;;;4.25;2.20;;;;;;;;;;12528172;28;20048;-77
2022/05/11 14:21:18;;;;;;;6.43;3.53;;;;;;;;;;12546196;28;20037;-77
2022/05/11 14:27:20;;;;;;;4.68;3.20;;;;;;;;;;12545288;28;20040;-77
2022/05/11 14:33:22;;;;;;;3.30;2.92;;;;;;;;;;12527081;28;20041;-76
2022/05/11 14:39:26;;;;;;;4.75;4.00;;;;;;;;;;12527633;28;20051;-77
2022/05/11 14:45:28;;;;;;;4.50;2.83;;;;;;;;;;12544632;28;20041;-78
2022/05/11 14:51:29;;;;;;;4.80;3.60;;;;;;;;;;12527348;28;20397;-79
2022/05/11 15:03:52;;;;;;;3.50;3.20;;;;;;;;;;12544534;28;20037;-79
2022/05/11 15:09:56;;;;;;;4.00;2.92;;;;;;;;;;12544212;28;20056;-79
2022/05/11 15:15:59;;;;;;;4.50;2.65;;;;;;;;;;12526016;28;20056;-79
2022/05/11 15:22:01;;;;;;;3.85;3.13;;;;;;;;;;12543831;28;20021;-79
2022/05/11 15:28:03;;;;;;;4.03;2.67;;;;;;;;;;12525631;28;20037;-79
2022/05/11 15:34:06;;;;;;;7.22;3.63;;;;;;;;;;12543560;28;20395;-79
2022/05/11 15:40:09;;;;;;;3.90;2.97;;;;;;;;;;12525921;28;20036;-84
2022/05/11 15:46:12;;;;;;;3.65;2.80;;;;;;;;;;12510045;28;20437;-86
2022/05/11 15:52:15;;;;;;;4.45;3.15;;;;;;;;;;12543314;28;20405;-88
2022/05/11 15:58:17;;;;;;;3.38;2.60;;;;;;;;;;12544457;28;20037;-82
2022/05/11 16:04:18;;;;;;;3.85;2.72;;;;;;;;;;12542777;28;20029;-81
2022/05/11 16:10:20;;;;;;;3.72;2.60;;;;;;;;;;12529782;28;20040;-84
2022/05/11 16:16:22;;;;;;;4.35;2.95;;;;;;;;;;12552278;28;20049;-81
2022/05/11 16:22:26;;;;;;;3.25;2.42;;;;;;;;;;12533652;28;20037;-81
2022/05/11 16:28:28;;;;;;;3.08;2.63;;;;;;;;;;12533260;28;20500;-81
2022/05/11 16:34:29;;;;;;;4.25;2.70;;;;;;;;;;12532608;28;20036;-81
2022/05/11 16:40:33;;;;;;;2.60;2.40;;;;;;;;;;12534345;28;20385;-80
2022/05/11 16:46:35;;;;;;;3.17;2.40;;;;;;;;;;12550638;28;20040;-84
2022/05/11 16:52:37;;;;;;;3.17;2.10;;;;;;;;;;12532741;28;20496;-78
2022/05/11 16:58:39;;;;;;;2.97;2.17;;;;;;;;;;12531945;28;20063;-79
2022/05/11 17:04:41;;;;;;;3.85;2.33;;;;;;;;;;12549331;28;20187;-79
2022/05/11 17:10:43;;;;;;;4.88;3.15;;;;;;;;;;12531332;28;20057;-80
2022/05/11 17:16:45;;;;;;;3.03;2.72;;;;;;;;;;12547896;28;20049;-80
2022/05/11 17:22:47;;;;;;;3.20;2.90;;;;;;;;;;12547467;28;20032;-79
2022/05/11 17:28:48;;;;;;;3.88;3.00;;;;;;;;;;12548778;28;20036;-79
2022/05/11 17:34:50;;;;;;;3.30;3.00;;;;;;;;;;12548003;28;20052;-78
2022/05/11 17:40:52;;;;;;;3.60;2.70;;;;;;;;;;12548991;28;20041;-81
2022/05/11 17:46:53;;;;;;;3.00;2.58;;;;;;;;;;12547555;28;20043;-88
2022/05/11 17:52:55;;;;;;;3.08;2.75;;;;;;;;;;12547218;28;20029;-84
2022/05/11 17:58:57;;;;;;;3.80;2.78;;;;;;;;;;12545741;28;20045;-83
2022/05/11 18:04:59;;;;;;;3.35;2.80;;;;;;;;;;12527877;28;20037;-80
2022/05/11 18:11:01;;;;;;;3.30;2.63;;;;;;;;;;12545636;28;20056;-78
2022/05/11 18:17:03;;;;;;;4.43;2.75;;;;;;;;;;12543663;28;20359;-86
2022/05/11 18:23:06;;;;;;;3.60;3.03;;;;;;;;;;12526863;28;20029;-81
2022/05/11 18:29:09;;;;;;;2.63;2.42;;;;;;;;;;12544774;28;20401;-79
2022/05/11 18:35:11;;;;;;;3.75;3.10;;;;;;;;;;12542954;28;20401;-81
2022/05/11 18:41:13;;;;;;;3.67;2.88;;;;;;;;;;12544260;28;20079;-85
2022/05/11 18:47:14;;;;;;;2.90;2.70;;;;;;;;;;12527018;28;20033;-80
2022/05/11 18:53:16;;;;;;;2.78;2.35;;;;;;;;;;12544348;28;20276;-86
2022/05/11 18:59:18;;;;;;;4.30;2.80;;;;;;;;;;12543736;28;20119;-84
2022/05/11 19:05:21;;;;;;;3.78;3.30;;;;;;;;;;12525992;28;20488;-82
2022/05/11 19:11:23;;;;;;;3.75;3.08;;;;;;;;;;12526439;28;20065;-83
2022/05/11 19:17:24;;;;;;;;;;;;;;;;;;12544504;28;20037;-80
2022/05/11 19:23:26;;;;;;;4.13;2.80;;;;;;;;;;12542877;28;19916;-80
2022/05/11 19:29:28;;;;;;;2.83;2.53;;;;;;;;;;12546548;28;20047;-82
2022/05/11 19:35:29;;;;;;;;;;;;;;;;;;12551386;28;20044;-82
2022/05/11 19:41:31;;;;;;;2.97;2.57;;;;;;;;;;12549148;28;20357;-83
2022/05/11 19:47:32;;;;;;;;;;;;;;;;;;12554337;28;20037;-81
2022/05/11 19:53:34;;;;;;;4.00;2.40;;;;;;;;;;12557974;28;19909;-82
2022/05/11 19:59:36;;;;;;;5.28;2.60;;;;;;;;;;12554758;28;20049;-84
2022/05/11 20:05:38;;;;;;;;;;;;;;;;;;12554656;28;20369;-84
2022/05/11 20:11:40;;;;;;;4.17;2.77;;;;;;;;;;12553239;28;20297;-81
2022/05/11 20:17:42;;;;;;;4.82;2.95;;;;;;;;;;12552825;28;20037;-80
2022/05/11 20:23:46;;;;;;;3.80;1.98;;;;;;;;;;12551096;28;20037;-81
2022/05/11 20:29:48;;;;;;;3.92;2.60;;;;;;;;;;12550929;28;20489;-80
2022/05/11 20:35:50;;;;;;;2.97;2.50;;;;;;;;;;12551756;28;20041;-80
2022/05/11 20:41:52;;;;;;;3.08;2.55;;;;;;;;;;12550240;28;20048;-80
2022/05/11 20:47:53;;;;;;;;;;;;;;;;;;12550408;28;20040;-80
2022/05/11 20:53:55;;;;;;;2.63;2.40;;;;;;;;;;12537516;28;19932;-80
2022/05/11 20:59:57;;;;;;;2.55;2.00;;;;;;;;;;12550459;28;20044;-80
2022/05/11 21:05:59;;;;;;;1.63;1.52;;;;;;;;;;12550596;28;20033;-80
2022/05/11 21:12:01;;;;;;;3.53;2.80;;;;;;;;;;12550204;28;20037;-80
2022/05/11 21:18:03;;;;;;;4.65;3.05;;;;;;;;;;12549401;28;20490;-80
2022/05/11 21:24:05;;;;;;;2.92;2.53;;;;;;;;;;12548211;28;20501;-79
2022/05/11 21:30:07;;;;;;;;;;;;;;;;;;12548420;28;20032;-80
2022/05/11 21:36:08;;;;;;;3.63;3.17;;;;;;;;;;12547539;28;19927;-80
2022/05/11 21:42:10;;;;;;;3.40;3.05;;;;;;;;;;12546893;28;20052;-80
2022/05/11 21:48:13;;;;;;;3.85;2.78;;;;;;;;;;12546726;28;20553;-80
2022/05/11 21:54:14;;;;;;;3.65;3.28;;;;;;;;;;12529612;28;20033;-80
2022/05/11 22:00:37;;;;;;;2.92;2.72;;;;;;;;;;12529395;28;20036;-80
2022/05/11 22:06:39;;;;;;;2.85;2.38;;;;;;;;;;12515612;28;20405;-79
2022/05/11 22:12:41;;;;;;;5.20;2.90;;;;;;;;;;12544342;28;20033;-79
2022/05/11 22:18:42;;;;;;;4.93;3.33;;;;;;;;;;12543202;28;20048;-79
2022/05/11 22:24:44;;;;;;;3.90;3.45;;;;;;;;;;12544864;28;20033;-80
2022/05/11 22:30:47;;;;;;;3.97;3.60;;;;;;;;;;12544103;28;20044;-80
2022/05/11 22:36:51;;;;;;;3.22;3.03;;;;;;;;;;12542816;28;20045;-80
2022/05/11 22:42:53;;;;;;;4.47;3.95;;;;;;;;;;12543539;28;20051;-80
2022/05/11 22:48:55;;;;;;;3.55;3.25;;;;;;;;;;12543330;28;20474;-79
2022/05/11 22:54:56;;;;;;;5.28;3.67;;;;;;;;;;12542501;28;20536;-79
2022/05/11 23:00:58;;;;;;;4.25;3.85;;;;;;;;;;12541604;28;20029;-80
2022/05/11 23:07:00;;;;;;;3.85;3.38;;;;;;;;;;12495261;28;1370913;-80
2022/05/11 23:13:02;;;;;;;3.83;3.53;;;;;;;;;;12544048;28;20029;-80
2022/05/11 23:19:04;;;;;;;4.90;3.90;;;;;;;;;;12525391;28;20091;-79
2022/05/11 23:25:07;;;;;;;4.68;4.25;;;;;;;;;;12544083;28;20029;-80
2022/05/11 23:31:08;;;;;;;4.10;3.80;;;;;;;;;;12542896;28;20055;-79
2022/05/11 23:37:10;;;;;;;5.43;3.83;;;;;;;;;;12544254;28;20478;-80
2022/05/11 23:43:12;;;;;;;4.82;4.43;;;;;;;;;;12543882;28;20494;-80
2022/05/11 23:49:13;;;;;;;5.88;5.35;;;;;;;;;;12542259;28;20033;-80
2022/05/11 23:55:16;;;;;;;6.68;5.32;;;;;;;;;;12542226;28;20393;-80
